Time;durP1;ratioP1;P1;durP2;ratioP2;P2;SDS_P1;SDS_P2;PMS_P1;PMS_P2;Temp;Humidity;BMP_temperature;BMP_pressure;BME280_temperature;BME280_humidity;BME280_pressure;Samples;Min_cycle;Max_cycle;Signal;HPM_P1;HPM_P2
2023/09/16 00:00:58;;;;;;;23.40;13.65;;;;;;;;;;5016733;28;20025;-67
2023/09/16 00:03:23;;;;;;;25.88;13.15;;;;;;;;;;5031094;28;20034;-67
2023/09/16 00:05:48;;;;;;;16.25;9.45;;;;;;;;;;5035900;28;20053;-67
2023/09/16 00:08:14;;;;;;;24.90;13.82;;;;;;;;;;5036025;28;20093;-67
2023/09/16 00:10:40;;;;;;;25.35;14.55;;;;;;;;;;5035523;28;20029;-67
2023/09/16 00:13:06;;;;;;;19.60;12.35;;;;;;;;;;5034971;28;20104;-67
2023/09/16 00:15:31;;;;;;;22.10;13.98;;;;;;;;;;5035703;28;20021;-67
2023/09/16 00:17:56;;;;;;;22.83;12.48;;;;;;;;;;5034338;28;20025;-66
2023/09/16 00:20:25;;;;;;;18.63;12.07;;;;;;;;;;5035520;28;20086;-67
2023/09/16 00:22:51;;;;;;;19.58;11.75;;;;;;;;;;5030278;28;20400;-67
2023/09/16 00:25:16;;;;;;;18.27;10.98;;;;;;;;;;5016783;28;20058;-67
2023/09/16 00:27:41;;;;;;;17.80;10.98;;;;;;;;;;5019518;28;20060;-67
2023/09/16 00:30:10;;;;;;;16.08;8.90;;;;;;;;;;5014141;28;20025;-67
2023/09/16 00:32:35;;;;;;;17.88;11.55;;;;;;;;;;5018245;28;20058;-67
2023/09/16 00:35:02;;;;;;;18.98;12.63;;;;;;;;;;5015796;28;20057;-66
2023/09/16 00:37:27;;;;;;;16.67;9.35;;;;;;;;;;5015382;28;20064;-67
2023/09/16 00:39:53;;;;;;;15.25;10.15;;;;;;;;;;5024627;28;20502;-67
2023/09/16 00:42:18;;;;;;;15.13;8.88;;;;;;;;;;5035212;28;20017;-67
2023/09/16 00:44:43;;;;;;;13.95;8.98;;;;;;;;;;5031507;28;20399;-67
2023/09/16 00:47:08;;;;;;;13.20;9.30;;;;;;;;;;5014223;28;20029;-67
2023/09/16 00:49:34;;;;;;;13.25;9.00;;;;;;;;;;5031584;28;20403;-67
2023/09/16 00:51:59;;;;;;;13.02;8.57;;;;;;;;;;5035263;28;20021;-67
2023/09/16 00:54:25;;;;;;;14.98;9.90;;;;;;;;;;5023529;28;20113;-67
2023/09/16 00:56:51;;;;;;;12.02;8.10;;;;;;;;;;5014145;28;20034;-67
2023/09/16 00:59:17;;;;;;;12.00;8.10;;;;;;;;;;5015669;28;20117;-67
2023/09/16 01:01:44;;;;;;;13.18;8.60;;;;;;;;;;5022753;28;20527;-67
2023/09/16 01:04:10;;;;;;;14.23;8.75;;;;;;;;;;5013842;28;20026;-67
2023/09/16 01:06:36;;;;;;;12.93;8.75;;;;;;;;;;5015119;28;20033;-67
2023/09/16 01:09:01;;;;;;;14.35;7.57;;;;;;;;;;5021237;28;20088;-66
2023/09/16 01:11:27;;;;;;;17.95;10.23;;;;;;;;;;5014412;28;20026;-67
2023/09/16 01:13:52;;;;;;;17.55;9.23;;;;;;;;;;5015128;28;20029;-66
2023/09/16 01:16:30;;;;;;;14.48;8.65;;;;;;;;;;5014031;28;20391;-67
2023/09/16 01:19:05;;;;;;;15.00;8.80;;;;;;;;;;5015256;28;20026;-67
2023/09/16 01:21:31;;;;;;;13.60;7.70;;;;;;;;;;5015108;28;20033;-66
2023/09/16 01:24:16;;;;;;;14.30;9.40;;;;;;;;;;5014757;28;20041;-67
2023/09/16 01:26:41;;;;;;;14.35;8.65;;;;;;;;;;5015265;28;20025;-66
2023/09/16 01:29:07;;;;;;;13.73;8.48;;;;;;;;;;5013967;28;20030;-67
2023/09/16 01:31:32;;;;;;;10.40;7.78;;;;;;;;;;5014635;28;20495;-67
2023/09/16 01:33:58;;;;;;;21.95;10.02;;;;;;;;;;5015028;28;20026;-67
2023/09/16 01:36:25;;;;;;;11.98;8.55;;;;;;;;;;5013772;28;20113;-67
2023/09/16 01:38:57;;;;;;;13.35;8.13;;;;;;;;;;5013604;28;20108;-67
2023/09/16 01:41:23;;;;;;;11.57;8.13;;;;;;;;;;5013697;28;20037;-67
2023/09/16 01:43:48;;;;;;;12.05;7.82;;;;;;;;;;5014466;28;20546;-67
2023/09/16 01:46:13;;;;;;;18.58;8.32;;;;;;;;;;5013524;28;20029;-67
2023/09/16 01:48:38;;;;;;;13.18;8.07;;;;;;;;;;5012960;28;20025;-67
2023/09/16 01:51:04;;;;;;;12.35;7.72;;;;;;;;;;5014716;28;20022;-67
2023/09/16 01:53:29;;;;;;;11.40;6.88;;;;;;;;;;5014599;28;20496;-67
2023/09/16 01:55:55;;;;;;;11.25;7.25;;;;;;;;;;5014062;28;20018;-67
2023/09/16 01:58:20;;;;;;;11.45;6.97;;;;;;;;;;5014383;28;20041;-67
2023/09/16 02:00:45;;;;;;;12.32;7.63;;;;;;;;;;5014558;28;20400;-67
2023/09/16 02:03:11;;;;;;;12.15;7.45;;;;;;;;;;5014371;28;20442;-66
2023/09/16 02:05:36;;;;;;;12.52;7.93;;;;;;;;;;5013313;28;20087;-66
2023/09/16 02:08:01;;;;;;;11.30;7.47;;;;;;;;;;5013738;28;20029;-67
2023/09/16 02:10:27;;;;;;;14.18;8.13;;;;;;;;;;5014263;28;20033;-67
2023/09/16 02:12:52;;;;;;;12.77;8.77;;;;;;;;;;5014249;28;20076;-66
2023/09/16 02:15:17;;;;;;;13.18;8.07;;;;;;;;;;5014174;28;20022;-66
2023/09/16 02:17:43;;;;;;;11.43;7.80;;;;;;;;;;5012953;28;20037;-67
2023/09/16 02:20:10;;;;;;;12.52;8.65;;;;;;;;;;5014042;28;20116;-67
2023/09/16 02:22:35;;;;;;;12.18;8.07;;;;;;;;;;5012597;28;20021;-67
2023/09/16 02:25:01;;;;;;;11.95;7.53;;;;;;;;;;5013980;28;20534;-67
2023/09/16 02:27:26;;;;;;;11.38;7.85;;;;;;;;;;5013755;28;20026;-67
2023/09/16 02:29:51;;;;;;;13.55;7.13;;;;;;;;;;5013967;28;20415;-67
2023/09/16 02:32:17;;;;;;;11.98;6.75;;;;;;;;;;5013932;28;20030;-67
2023/09/16 02:34:42;;;;;;;13.18;7.70;;;;;;;;;;5014025;28;20033;-67
2023/09/16 02:37:07;;;;;;;11.63;6.88;;;;;;;;;;5013260;28;20018;-67
2023/09/16 02:39:32;;;;;;;11.80;6.95;;;;;;;;;;5013718;28;20115;-67
2023/09/16 02:41:58;;;;;;;16.50;8.88;;;;;;;;;;5012637;28;20113;-67
2023/09/16 02:44:23;;;;;;;14.00;8.10;;;;;;;;;;5015931;28;20025;-66
2023/09/16 02:46:48;;;;;;;13.77;7.93;;;;;;;;;;5015356;28;20033;-67
2023/09/16 02:49:14;;;;;;;15.82;8.15;;;;;;;;;;5033120;28;20032;-67
2023/09/16 02:51:39;;;;;;;11.23;6.75;;;;;;;;;;5033077;28;20151;-67
2023/09/16 02:54:06;;;;;;;12.25;6.70;;;;;;;;;;5033055;28;20467;-67
2023/09/16 02:56:31;;;;;;;12.32;7.53;;;;;;;;;;5033590;28;20428;-66
2023/09/16 02:58:57;;;;;;;12.60;6.82;;;;;;;;;;5032101;28;20152;-67
2023/09/16 03:01:22;;;;;;;9.73;6.90;;;;;;;;;;5033155;28;20057;-67
2023/09/16 03:03:47;;;;;;;10.63;6.70;;;;;;;;;;5033093;28;20029;-66
2023/09/16 03:06:13;;;;;;;10.77;6.55;;;;;;;;;;5032836;28;20017;-67
2023/09/16 03:08:38;;;;;;;13.63;7.65;;;;;;;;;;5032471;28;20032;-67
2023/09/16 03:11:04;;;;;;;11.50;7.35;;;;;;;;;;5032821;28;20040;-67
2023/09/16 03:13:30;;;;;;;12.98;7.57;;;;;;;;;;5033015;28;20029;-66
2023/09/16 03:16:27;;;;;;;13.30;7.88;;;;;;;;;;5031823;28;20028;-67
2023/09/16 03:18:53;;;;;;;12.35;7.82;;;;;;;;;;5009787;28;20038;-67
2023/09/16 03:21:19;;;;;;;13.43;8.05;;;;;;;;;;5032263;28;20042;-67
2023/09/16 03:23:45;;;;;;;12.40;7.35;;;;;;;;;;5032743;28;20021;-67
2023/09/16 03:26:12;;;;;;;13.73;7.90;;;;;;;;;;5031453;28;20476;-67
2023/09/16 03:28:40;;;;;;;11.48;7.28;;;;;;;;;;5031502;28;20057;-67
2023/09/16 03:31:05;;;;;;;13.73;7.50;;;;;;;;;;5032976;28;20026;-67
2023/09/16 03:33:31;;;;;;;11.00;6.68;;;;;;;;;;5032416;28;20502;-67
2023/09/16 03:35:56;;;;;;;12.55;8.43;;;;;;;;;;5032761;28;20025;-67
2023/09/16 03:38:23;;;;;;;9.60;6.00;;;;;;;;;;5032739;28;20029;-66
2023/09/16 03:40:50;;;;;;;9.40;5.88;;;;;;;;;;5032833;28;20065;-66
2023/09/16 03:43:16;;;;;;;9.77;6.85;;;;;;;;;;5032255;28;20102;-67
2023/09/16 03:45:41;;;;;;;11.55;6.75;;;;;;;;;;5031201;28;20049;-67
2023/09/16 03:48:06;;;;;;;14.05;8.02;;;;;;;;;;5032569;28;20376;-67
2023/09/16 03:50:32;;;;;;;10.48;7.72;;;;;;;;;;5031286;28;20056;-67
2023/09/16 03:52:57;;;;;;;12.43;6.35;;;;;;;;;;5032686;28;20028;-67
2023/09/16 03:55:22;;;;;;;10.40;6.25;;;;;;;;;;5032375;28;20471;-67
2023/09/16 03:57:48;;;;;;;14.93;8.65;;;;;;;;;;5030629;28;20060;-67
2023/09/16 04:00:13;;;;;;;10.57;6.35;;;;;;;;;;5032227;28;20032;-67
2023/09/16 04:02:39;;;;;;;10.38;6.18;;;;;;;;;;5031418;28;20017;-67
2023/09/16 04:05:05;;;;;;;10.65;7.05;;;;;;;;;;5027785;28;20061;-67
2023/09/16 04:07:30;;;;;;;11.15;6.10;;;;;;;;;;5011916;28;20488;-67
2023/09/16 04:09:55;;;;;;;13.77;7.70;;;;;;;;;;5020289;28;20032;-67
2023/09/16 04:12:20;;;;;;;10.48;7.03;;;;;;;;;;5035758;28;20025;-67
2023/09/16 04:14:46;;;;;;;10.18;6.63;;;;;;;;;;5031793;28;20463;-67
2023/09/16 04:17:12;;;;;;;8.70;5.63;;;;;;;;;;5024806;28;20041;-67
2023/09/16 04:19:37;;;;;;;11.77;6.72;;;;;;;;;;5036020;28;20029;-67
2023/09/16 04:22:03;;;;;;;9.32;5.47;;;;;;;;;;5033567;28;20083;-67
2023/09/16 04:24:28;;;;;;;9.05;5.93;;;;;;;;;;5035545;28;20029;-67
2023/09/16 04:26:53;;;;;;;7.65;5.72;;;;;;;;;;5035710;28;20026;-67
2023/09/16 04:29:19;;;;;;;11.38;6.38;;;;;;;;;;5035292;28;20121;-67
2023/09/16 04:31:44;;;;;;;9.98;6.22;;;;;;;;;;5035890;28;20025;-67
2023/09/16 04:34:09;;;;;;;10.57;5.75;;;;;;;;;;5018044;28;20026;-67
2023/09/16 04:36:34;;;;;;;10.43;6.85;;;;;;;;;;5016144;28;20388;-66
2023/09/16 04:39:00;;;;;;;11.65;6.25;;;;;;;;;;5014284;28;20028;-67
2023/09/16 04:41:25;;;;;;;15.23;8.27;;;;;;;;;;5016237;28;20138;-66
2023/09/16 04:43:51;;;;;;;14.73;9.55;;;;;;;;;;5016006;28;20025;-66
2023/09/16 04:46:18;;;;;;;11.70;6.35;;;;;;;;;;5024031;28;20022;-67
2023/09/16 04:48:43;;;;;;;14.07;7.10;;;;;;;;;;5013402;28;20080;-67
2023/09/16 04:51:09;;;;;;;12.70;6.95;;;;;;;;;;5013897;28;20029;-67
2023/09/16 04:53:35;;;;;;;8.82;5.50;;;;;;;;;;5015621;28;20025;-67
2023/09/16 04:56:06;;;;;;;13.82;7.95;;;;;;;;;;5015281;28;20105;-67
2023/09/16 04:58:31;;;;;;;11.05;6.72;;;;;;;;;;5015407;28;20126;-67
2023/09/16 05:01:00;;;;;;;14.57;8.00;;;;;;;;;;5033049;28;20538;-67
2023/09/16 05:03:25;;;;;;;12.50;7.43;;;;;;;;;;5025709;28;20030;-67
2023/09/16 05:05:51;;;;;;;12.75;7.63;;;;;;;;;;5014971;28;20033;-67
2023/09/16 05:08:17;;;;;;;14.75;7.13;;;;;;;;;;5014781;28;20084;-67
2023/09/16 05:10:42;;;;;;;12.27;7.18;;;;;;;;;;5014931;28;20026;-67
2023/09/16 05:13:07;;;;;;;12.70;6.80;;;;;;;;;;5019115;28;20013;-67
2023/09/16 05:15:33;;;;;;;10.75;7.13;;;;;;;;;;5014297;28;20117;-67
2023/09/16 05:17:58;;;;;;;9.50;6.15;;;;;;;;;;5014569;28;20072;-67
2023/09/16 05:20:23;;;;;;;8.13;5.47;;;;;;;;;;5014819;28;20053;-67
2023/09/16 05:22:50;;;;;;;11.68;6.13;;;;;;;;;;5014176;28;20116;-68
2023/09/16 05:25:15;;;;;;;10.30;7.10;;;;;;;;;;5012869;28;20022;-67
2023/09/16 05:27:40;;;;;;;9.40;6.55;;;;;;;;;;5026029;28;20483;-66
2023/09/16 05:30:06;;;;;;;14.75;7.88;;;;;;;;;;5034283;28;20026;-66
2023/09/16 05:32:31;;;;;;;11.98;7.95;;;;;;;;;;5034083;28;20104;-66
2023/09/16 05:34:57;;;;;;;15.32;8.40;;;;;;;;;;5034160;28;20108;-66
2023/09/16 05:37:22;;;;;;;14.68;9.02;;;;;;;;;;5033914;28;20033;-66
2023/09/16 05:39:48;;;;;;;14.07;8.35;;;;;;;;;;5034267;28;20027;-66
2023/09/16 05:42:13;;;;;;;15.82;8.75;;;;;;;;;;5034076;28;20034;-66
2023/09/16 05:44:39;;;;;;;15.60;8.63;;;;;;;;;;5031669;28;20072;-67
2023/09/16 05:47:04;;;;;;;18.02;10.35;;;;;;;;;;5014925;28;20052;-66
2023/09/16 05:49:29;;;;;;;17.17;10.85;;;;;;;;;;5013573;28;20017;-66
2023/09/16 05:51:55;;;;;;;20.45;10.88;;;;;;;;;;5014189;28;20030;-66
2023/09/16 05:54:21;;;;;;;16.08;9.43;;;;;;;;;;5013947;28;20080;-66
2023/09/16 05:56:46;;;;;;;19.27;10.43;;;;;;;;;;5014166;28;20025;-66
2023/09/16 05:59:12;;;;;;;13.70;8.52;;;;;;;;;;5014158;28;20021;-66
2023/09/16 06:01:38;;;;;;;15.75;9.15;;;;;;;;;;5013925;28;20068;-66
2023/09/16 06:04:03;;;;;;;14.23;9.00;;;;;;;;;;5013498;28;20022;-66
2023/09/16 06:06:29;;;;;;;16.70;9.55;;;;;;;;;;5012588;28;20029;-66
2023/09/16 06:08:54;;;;;;;14.98;9.63;;;;;;;;;;5013641;28;20048;-66
2023/09/16 06:11:19;;;;;;;18.88;11.93;;;;;;;;;;5013494;28;20080;-67
2023/09/16 06:13:45;;;;;;;18.38;9.80;;;;;;;;;;5012431;28;20510;-66
2023/09/16 06:16:10;;;;;;;18.30;10.82;;;;;;;;;;5013639;28;20455;-66
2023/09/16 06:18:35;;;;;;;14.95;8.90;;;;;;;;;;5014079;28;20109;-66
2023/09/16 06:21:02;;;;;;;15.15;9.68;;;;;;;;;;5013708;28;20021;-66
2023/09/16 06:23:27;;;;;;;17.15;11.10;;;;;;;;;;5011968;28;20029;-67
2023/09/16 06:25:52;;;;;;;19.10;10.95;;;;;;;;;;5026854;28;20022;-67
2023/09/16 06:28:19;;;;;;;15.90;10.43;;;;;;;;;;5011903;28;20037;-66
2023/09/16 06:30:44;;;;;;;18.15;11.27;;;;;;;;;;5011669;28;20400;-67
2023/09/16 06:33:10;;;;;;;13.98;8.77;;;;;;;;;;5012121;28;20033;-66
2023/09/16 06:35:35;;;;;;;14.38;9.15;;;;;;;;;;5013724;28;20058;-67
2023/09/16 06:38:00;;;;;;;16.42;9.70;;;;;;;;;;5013277;28;20105;-66
2023/09/16 06:40:26;;;;;;;14.15;9.65;;;;;;;;;;5030588;28;20029;-66
2023/09/16 06:42:51;;;;;;;14.25;8.70;;;;;;;;;;5032908;28;20021;-66
2023/09/16 06:45:16;;;;;;;15.32;10.00;;;;;;;;;;5031964;28;20514;-66
2023/09/16 06:47:41;;;;;;;19.05;11.32;;;;;;;;;;5032784;28;20033;-68
2023/09/16 06:50:12;;;;;;;17.02;9.75;;;;;;;;;;5032808;28;20032;-69
2023/09/16 06:52:37;;;;;;;16.77;10.32;;;;;;;;;;5032244;28;20026;-69
2023/09/16 06:55:03;;;;;;;15.73;9.25;;;;;;;;;;5032747;28;20132;-69
2023/09/16 06:57:29;;;;;;;16.52;10.65;;;;;;;;;;5031510;28;20037;-69
2023/09/16 06:59:54;;;;;;;17.48;10.88;;;;;;;;;;5032100;28;20075;-69
2023/09/16 07:02:22;;;;;;;15.73;9.65;;;;;;;;;;5032596;28;20079;-69
2023/09/16 07:04:47;;;;;;;14.48;9.65;;;;;;;;;;5032826;28;20098;-69
2023/09/16 07:07:13;;;;;;;15.63;9.63;;;;;;;;;;5031148;28;20025;-69
2023/09/16 07:09:38;;;;;;;15.30;8.82;;;;;;;;;;5032200;28;20025;-69
2023/09/16 07:12:05;;;;;;;14.13;8.55;;;;;;;;;;5031445;28;20029;-69
2023/09/16 07:14:31;;;;;;;13.85;9.55;;;;;;;;;;5032913;28;20056;-69
2023/09/16 07:16:56;;;;;;;16.20;11.00;;;;;;;;;;5032346;28;20045;-69
2023/09/16 07:19:21;;;;;;;14.10;9.57;;;;;;;;;;5031851;28;20483;-69
2023/09/16 07:21:47;;;;;;;18.40;11.20;;;;;;;;;;5031328;28;20387;-69
2023/09/16 07:24:12;;;;;;;19.33;9.93;;;;;;;;;;5032575;28;20075;-69
2023/09/16 07:26:37;;;;;;;14.13;9.50;;;;;;;;;;5032535;28;20029;-69
2023/09/16 07:29:03;;;;;;;15.35;9.70;;;;;;;;;;5032395;28;20030;-69
2023/09/16 07:31:28;;;;;;;19.17;10.82;;;;;;;;;;5031940;28;20029;-69
2023/09/16 07:33:54;;;;;;;15.02;10.27;;;;;;;;;;5032565;28;20022;-69
2023/09/16 07:36:19;;;;;;;16.95;9.82;;;;;;;;;;5031260;28;20383;-69
2023/09/16 07:38:44;;;;;;;15.13;9.95;;;;;;;;;;5031168;28;20101;-69
2023/09/16 07:41:10;;;;;;;17.17;10.63;;;;;;;;;;5032497;28;20036;-69
2023/09/16 07:43:36;;;;;;;15.95;9.48;;;;;;;;;;5031758;28;20052;-69
2023/09/16 07:46:01;;;;;;;12.45;9.13;;;;;;;;;;5034162;28;20471;-69
2023/09/16 07:48:26;;;;;;;20.77;8.50;;;;;;;;;;5034264;28;20025;-69
2023/09/16 07:50:51;;;;;;;13.75;9.05;;;;;;;;;;5029363;28;20021;-69
2023/09/16 07:53:17;;;;;;;12.70;9.18;;;;;;;;;;5035395;28;20564;-69
2023/09/16 07:55:42;;;;;;;15.40;9.35;;;;;;;;;;5036048;28;20476;-69
2023/09/16 07:58:07;;;;;;;14.05;9.13;;;;;;;;;;5034616;28;20108;-69
2023/09/16 08:00:33;;;;;;;14.88;8.95;;;;;;;;;;5035989;28;20021;-68
2023/09/16 08:02:58;;;;;;;11.93;8.77;;;;;;;;;;5034056;28;20400;-70
2023/09/16 08:05:24;;;;;;;15.05;8.73;;;;;;;;;;5035510;28;20057;-69
2023/09/16 08:07:49;;;;;;;16.73;9.27;;;;;;;;;;5016144;28;20022;-69
2023/09/16 08:10:14;;;;;;;11.25;7.22;;;;;;;;;;5015864;28;20030;-69
2023/09/16 08:12:40;;;;;;;12.10;8.13;;;;;;;;;;5018144;28;20030;-69
2023/09/16 08:15:06;;;;;;;12.85;8.18;;;;;;;;;;5016044;28;20018;-69
2023/09/16 08:17:32;;;;;;;10.63;6.68;;;;;;;;;;5024908;28;20400;-68
2023/09/16 08:19:58;;;;;;;12.45;6.95;;;;;;;;;;5018428;28;20113;-68
2023/09/16 08:22:23;;;;;;;13.65;7.50;;;;;;;;;;5020354;28;20032;-66
2023/09/16 08:24:49;;;;;;;11.38;7.88;;;;;;;;;;5026246;28;20488;-66
2023/09/16 08:27:14;;;;;;;12.65;9.07;;;;;;;;;;5029402;28;20100;-66
2023/09/16 08:29:40;;;;;;;11.48;8.55;;;;;;;;;;5034741;28;20052;-66
2023/09/16 08:32:05;;;;;;;13.43;7.28;;;;;;;;;;5035331;28;20125;-66
2023/09/16 08:34:30;;;;;;;13.23;7.45;;;;;;;;;;5035389;28;20026;-66
2023/09/16 08:36:55;;;;;;;12.35;6.95;;;;;;;;;;5035200;28;20025;-66
2023/09/16 08:39:21;;;;;;;10.77;6.93;;;;;;;;;;5033861;28;20498;-66
2023/09/16 08:42:03;;;;;;;14.30;7.40;;;;;;;;;;5035110;28;20021;-67
2023/09/16 08:44:29;;;;;;;10.25;6.15;;;;;;;;;;5023776;28;20029;-67
2023/09/16 08:46:59;;;;;;;10.63;7.40;;;;;;;;;;5020518;28;20373;-66
2023/09/16 08:49:27;;;;;;;10.75;6.97;;;;;;;;;;5021311;28;20079;-66
2023/09/16 08:51:54;;;;;;;10.40;5.82;;;;;;;;;;5014055;28;20068;-66
2023/09/16 08:54:21;;;;;;;8.35;5.70;;;;;;;;;;5020055;28;20041;-66
2023/09/16 08:56:48;;;;;;;13.10;7.05;;;;;;;;;;5012334;28;20022;-67
2023/09/16 08:59:13;;;;;;;10.57;6.63;;;;;;;;;;5013638;28;20484;-67
2023/09/16 09:01:39;;;;;;;10.20;6.05;;;;;;;;;;5014053;28;20033;-67
2023/09/16 09:04:05;;;;;;;10.07;6.60;;;;;;;;;;5015237;28;20025;-67
2023/09/16 09:06:30;;;;;;;11.40;6.53;;;;;;;;;;5014620;28;20109;-66
2023/09/16 09:08:56;;;;;;;9.10;6.47;;;;;;;;;;5015177;28;20490;-66
2023/09/16 09:11:21;;;;;;;9.90;6.38;;;;;;;;;;5015040;28;20479;-66
2023/09/16 09:13:48;;;;;;;11.23;7.20;;;;;;;;;;5014186;28;20484;-66
2023/09/16 09:16:18;;;;;;;10.27;6.18;;;;;;;;;;5015195;28;20018;-66
2023/09/16 09:18:45;;;;;;;9.48;6.63;;;;;;;;;;5013731;28;20499;-66
2023/09/16 09:21:10;;;;;;;10.60;6.28;;;;;;;;;;5013660;28;20041;-66
2023/09/16 09:23:36;;;;;;;9.60;6.03;;;;;;;;;;5014824;28;20033;-66
2023/09/16 09:26:01;;;;;;;10.95;6.45;;;;;;;;;;5014865;28;20059;-66
2023/09/16 09:28:27;;;;;;;11.30;6.10;;;;;;;;;;5014069;28;20022;-66
2023/09/16 09:30:53;;;;;;;9.30;5.30;;;;;;;;;;5014649;28;20032;-66
2023/09/16 09:33:20;;;;;;;8.60;5.50;;;;;;;;;;5013490;28;20460;-66
2023/09/16 09:35:45;;;;;;;11.32;6.22;;;;;;;;;;5014646;28;20475;-66
2023/09/16 09:38:11;;;;;;;14.20;7.43;;;;;;;;;;5014457;28;20060;-66
2023/09/16 09:40:36;;;;;;;11.05;6.57;;;;;;;;;;5014067;28;20102;-66
2023/09/16 09:43:03;;;;;;;11.32;6.63;;;;;;;;;;5014683;28;20116;-66
2023/09/16 09:45:33;;;;;;;11.27;6.60;;;;;;;;;;5014342;28;20476;-66
2023/09/16 09:47:58;;;;;;;8.02;5.18;;;;;;;;;;5012988;28;20025;-66
2023/09/16 09:50:24;;;;;;;8.27;5.68;;;;;;;;;;5013171;28;20100;-66
2023/09/16 09:52:53;;;;;;;8.90;5.97;;;;;;;;;;5013039;28;20030;-66
2023/09/16 09:55:23;;;;;;;8.07;5.45;;;;;;;;;;5014127;28;20471;-66
2023/09/16 09:57:50;;;;;;;8.35;5.80;;;;;;;;;;5014154;28;20038;-66
2023/09/16 10:00:18;;;;;;;10.88;6.82;;;;;;;;;;5014389;28;20026;-66
2023/09/16 10:02:44;;;;;;;8.23;5.45;;;;;;;;;;5014075;28;20484;-66
2023/09/16 10:05:27;;;;;;;10.52;6.55;;;;;;;;;;5012726;28;20036;-66
2023/09/16 10:07:53;;;;;;;9.63;6.07;;;;;;;;;;5013384;28;20030;-66
2023/09/16 10:10:23;;;;;;;10.60;6.03;;;;;;;;;;5012876;28;20101;-67
2023/09/16 10:12:51;;;;;;;14.93;6.88;;;;;;;;;;5013954;28;20024;-67
2023/09/16 10:15:17;;;;;;;8.38;5.93;;;;;;;;;;5012760;28;20026;-67
2023/09/16 10:17:44;;;;;;;11.15;6.43;;;;;;;;;;5013808;28;20022;-67
2023/09/16 10:20:11;;;;;;;10.73;5.97;;;;;;;;;;5012512;28;20060;-67
2023/09/16 10:22:38;;;;;;;10.38;6.20;;;;;;;;;;5013939;28;20527;-67
2023/09/16 10:25:04;;;;;;;8.43;5.65;;;;;;;;;;5012533;28;20072;-67
2023/09/16 10:27:33;;;;;;;8.95;5.78;;;;;;;;;;5012308;28;20037;-67
2023/09/16 10:29:59;;;;;;;9.52;6.35;;;;;;;;;;5012107;28;20096;-67
2023/09/16 10:32:25;;;;;;;9.60;6.40;;;;;;;;;;5012451;28;20022;-67
2023/09/16 10:34:52;;;;;;;8.77;5.93;;;;;;;;;;5013516;28;20088;-67
2023/09/16 10:37:18;;;;;;;9.23;5.97;;;;;;;;;;5013507;28;20029;-67
2023/09/16 10:39:46;;;;;;;7.63;5.78;;;;;;;;;;5012036;28;20025;-67
2023/09/16 10:42:12;;;;;;;7.75;4.50;;;;;;;;;;5013679;28;20029;-67
2023/09/16 10:44:39;;;;;;;11.35;6.40;;;;;;;;;;5013411;28;20034;-67
2023/09/16 10:47:06;;;;;;;13.98;6.95;;;;;;;;;;5013519;28;20064;-67
2023/09/16 10:49:31;;;;;;;7.63;4.88;;;;;;;;;;5011975;28;20515;-67
2023/09/16 10:52:02;;;;;;;8.50;5.18;;;;;;;;;;5012844;28;20064;-67
2023/09/16 10:54:34;;;;;;;11.43;5.15;;;;;;;;;;5013226;28;20028;-67
2023/09/16 10:56:59;;;;;;;6.05;4.45;;;;;;;;;;5011974;28;20026;-67
2023/09/16 10:59:27;;;;;;;9.05;5.88;;;;;;;;;;5011868;28;20025;-67
2023/09/16 11:01:58;;;;;;;9.40;5.82;;;;;;;;;;5013098;28;20091;-67
2023/09/16 11:04:23;;;;;;;;;;;;;;;;;;5012399;28;20029;-67
2023/09/16 11:06:50;;;;;;;8.70;5.70;;;;;;;;;;5027956;28;20299;-67
2023/09/16 11:09:17;;;;;;;7.60;5.55;;;;;;;;;;5011730;28;20030;-67
2023/09/16 11:11:43;;;;;;;8.50;5.57;;;;;;;;;;5011859;28;20032;-67
2023/09/16 11:14:08;;;;;;;9.02;5.22;;;;;;;;;;5011461;28;20029;-67
2023/09/16 11:16:43;;;;;;;9.45;6.30;;;;;;;;;;5013144;28;20026;-67
2023/09/16 11:19:08;;;;;;;8.80;5.35;;;;;;;;;;5012818;28;20057;-67
2023/09/16 11:21:33;;;;;;;7.30;4.93;;;;;;;;;;5012262;28;20056;-67
2023/09/16 11:23:59;;;;;;;8.48;6.57;;;;;;;;;;5013134;28;20060;-67
2023/09/16 11:26:24;;;;;;;8.30;5.97;;;;;;;;;;5011597;28;20092;-67
2023/09/16 11:28:53;;;;;;;8.90;5.97;;;;;;;;;;5012130;28;20049;-67
2023/09/16 11:31:18;;;;;;;8.55;5.78;;;;;;;;;;5011885;28;20055;-67
2023/09/16 11:33:43;;;;;;;10.63;5.80;;;;;;;;;;5013055;28;20472;-67
2023/09/16 11:36:11;;;;;;;9.13;5.93;;;;;;;;;;5013092;28;20022;-67
2023/09/16 11:38:53;;;;;;;8.40;5.05;;;;;;;;;;5011766;28;20034;-67
2023/09/16 11:41:19;;;;;;;9.43;6.45;;;;;;;;;;5012848;28;20030;-67
2023/09/16 11:43:44;;;;;;;8.27;5.25;;;;;;;;;;4994572;28;20029;-67
2023/09/16 11:46:11;;;;;;;8.77;5.57;;;;;;;;;;5012673;28;20032;-67
2023/09/16 11:48:52;;;;;;;6.15;5.03;;;;;;;;;;5011313;28;20032;-67
2023/09/16 11:51:21;;;;;;;10.25;6.28;;;;;;;;;;5012674;28;20037;-67
2023/09/16 11:53:46;;;;;;;5.53;4.55;;;;;;;;;;5012045;28;20125;-67
2023/09/16 11:56:12;;;;;;;11.05;6.05;;;;;;;;;;5011368;28;20036;-67
2023/09/16 11:58:40;;;;;;;8.20;5.10;;;;;;;;;;5015418;28;20029;-67
2023/09/16 12:01:05;;;;;;;6.70;4.38;;;;;;;;;;5011626;28;20033;-67
2023/09/16 12:03:30;;;;;;;7.25;4.85;;;;;;;;;;5012054;28;20022;-67
2023/09/16 12:05:57;;;;;;;7.40;4.93;;;;;;;;;;5012146;28;20052;-67
2023/09/16 12:08:23;;;;;;;7.95;5.65;;;;;;;;;;5012138;28;20062;-67
2023/09/16 12:10:49;;;;;;;9.13;4.68;;;;;;;;;;5012797;28;20056;-68
2023/09/16 12:13:31;;;;;;;8.30;4.82;;;;;;;;;;5011236;28;20034;-67
2023/09/16 12:15:57;;;;;;;6.38;4.22;;;;;;;;;;5012411;28;20395;-67
2023/09/16 12:18:22;;;;;;;12.10;5.15;;;;;;;;;;4994619;28;20022;-67
2023/09/16 12:20:48;;;;;;;7.82;4.90;;;;;;;;;;5010903;28;20025;-68
2023/09/16 12:23:15;;;;;;;8.63;5.32;;;;;;;;;;5012302;28;20112;-67
2023/09/16 12:25:41;;;;;;;6.63;4.97;;;;;;;;;;5012533;28;20179;-67
2023/09/16 12:28:08;;;;;;;7.03;5.15;;;;;;;;;;5011903;28;20503;-68
2023/09/16 12:30:40;;;;;;;8.05;4.97;;;;;;;;;;5012593;28;20135;-67
2023/09/16 12:33:06;;;;;;;6.57;4.43;;;;;;;;;;5015721;28;20393;-67
2023/09/16 12:35:31;;;;;;;9.07;4.13;;;;;;;;;;5015787;28;20030;-67
2023/09/16 12:38:00;;;;;;;6.85;4.95;;;;;;;;;;5015703;28;20034;-67
2023/09/16 12:40:25;;;;;;;9.60;4.68;;;;;;;;;;5015958;28;20383;-67
2023/09/16 12:42:50;;;;;;;7.40;4.93;;;;;;;;;;5015268;28;20033;-67
2023/09/16 12:45:16;;;;;;;6.57;4.63;;;;;;;;;;5014243;28;20037;-67
2023/09/16 12:47:41;;;;;;;6.78;4.00;;;;;;;;;;5014290;28;20026;-67
2023/09/16 12:50:06;;;;;;;7.90;4.78;;;;;;;;;;5014650;28;20037;-67
2023/09/16 12:52:32;;;;;;;6.90;4.47;;;;;;;;;;5015708;28;20105;-67
2023/09/16 12:54:57;;;;;;;6.05;3.67;;;;;;;;;;5015264;28;20033;-67
2023/09/16 12:57:24;;;;;;;7.65;4.35;;;;;;;;;;5016162;28;20034;-67
2023/09/16 13:00:02;;;;;;;8.82;4.70;;;;;;;;;;5015304;28;20030;-67
2023/09/16 13:02:28;;;;;;;5.65;4.40;;;;;;;;;;5014950;28;20030;-67
2023/09/16 13:05:17;;;;;;;6.93;4.20;;;;;;;;;;5014813;28;20108;-68
2023/09/16 13:07:47;;;;;;;5.47;4.20;;;;;;;;;;5015228;28;20042;-67
2023/09/16 13:10:14;;;;;;;6.55;4.45;;;;;;;;;;5015177;28;20523;-67
2023/09/16 13:12:42;;;;;;;4.95;4.10;;;;;;;;;;5015041;28;20419;-67
2023/09/16 13:15:12;;;;;;;6.38;4.15;;;;;;;;;;5015378;28;20061;-67
2023/09/16 13:17:38;;;;;;;5.32;4.55;;;;;;;;;;5013119;28;20491;-67
2023/09/16 13:20:11;;;;;;;5.72;3.90;;;;;;;;;;5015306;28;20097;-67
2023/09/16 13:22:37;;;;;;;7.22;4.32;;;;;;;;;;5014978;28;20030;-67
2023/09/16 13:25:28;;;;;;;8.02;4.65;;;;;;;;;;5014412;28;20049;-67
2023/09/16 13:27:54;;;;;;;7.07;4.50;;;;;;;;;;5014187;28;20045;-67
2023/09/16 13:30:20;;;;;;;6.63;4.53;;;;;;;;;;5014763;28;20026;-68
2023/09/16 13:32:52;;;;;;;6.25;4.18;;;;;;;;;;5014701;28;20399;-68
2023/09/16 13:35:20;;;;;;;6.20;4.07;;;;;;;;;;5014215;28;20026;-68
2023/09/16 13:37:46;;;;;;;6.35;4.25;;;;;;;;;;5014631;28;20025;-68
2023/09/16 13:40:14;;;;;;;7.60;4.40;;;;;;;;;;5013380;28;20471;-67
2023/09/16 13:42:40;;;;;;;6.22;4.20;;;;;;;;;;5013997;28;20022;-67
2023/09/16 13:45:06;;;;;;;5.65;4.25;;;;;;;;;;5016620;28;20092;-67
2023/09/16 13:47:31;;;;;;;5.75;3.33;;;;;;;;;;5021639;28;20041;-67
2023/09/16 13:49:57;;;;;;;7.43;4.63;;;;;;;;;;5033905;28;20021;-67
2023/09/16 13:52:24;;;;;;;6.15;3.67;;;;;;;;;;5033846;28;20032;-68
2023/09/16 13:54:49;;;;;;;6.18;4.22;;;;;;;;;;5034006;28;20041;-67
2023/09/16 13:57:15;;;;;;;8.43;4.75;;;;;;;;;;5032899;28;20468;-67
2023/09/16 13:59:41;;;;;;;7.65;4.45;;;;;;;;;;5031766;28;20040;-67
2023/09/16 14:02:08;;;;;;;5.90;4.40;;;;;;;;;;5033842;28;20037;-68
2023/09/16 14:04:34;;;;;;;6.28;4.25;;;;;;;;;;5033798;28;20112;-68
2023/09/16 14:06:59;;;;;;;5.82;3.55;;;;;;;;;;5020364;28;20109;-68
2023/09/16 14:09:27;;;;;;;6.72;4.07;;;;;;;;;;5012226;28;20025;-67
2023/09/16 14:11:53;;;;;;;5.80;4.35;;;;;;;;;;5013891;28;20034;-68
2023/09/16 14:14:19;;;;;;;9.13;4.53;;;;;;;;;;5012698;28;20037;-67
2023/09/16 14:16:45;;;;;;;8.82;4.95;;;;;;;;;;5026030;28;20079;-67
2023/09/16 14:19:10;;;;;;;9.02;5.25;;;;;;;;;;5032330;28;20037;-67
2023/09/16 14:21:35;;;;;;;7.72;5.10;;;;;;;;;;5032824;28;20483;-67
2023/09/16 14:24:00;;;;;;;6.07;4.63;;;;;;;;;;5032230;28;20032;-67
2023/09/16 14:26:26;;;;;;;12.20;5.93;;;;;;;;;;5033507;28;20029;-67
2023/09/16 14:28:51;;;;;;;6.78;3.90;;;;;;;;;;5033236;28;20380;-67